Startpagina
METAR-TAF:

METAR-TAF

Vliegvelden :

Abidjan, Ivoorkust

Luchthaven Port Bouet

breedte: 05-15N, lengte: 003-56W, hoogte: 7 m

Actueel weer

Dit bericht is 40 minuten geleden gemaakt, om 03:30 UTC
Wind 3 kt uit het zuidwesten
Temperatuur 26°C
Vochtigheid 94%
Druk 1010 hPa
Zicht 10 km of meer
Weinig wolken op 1200 ft

METAR: DIAP 240330Z 22003KT 9999 FEW012 26/25 Q1010 NOSIG

Tijdstip: 04:10 (04:10 UTC)

Verwachting

Dit bericht is 5 uur en het 10 minuten geleden gemaakt, om 23:00 UTC
Verwachting geldig van 24 om 00 UTC tot 25 om 06 UTC
Wind 4 kt uit het zuidwesten
Zicht: 8000 m
Weinig wolken op 1200 ft
Tijdelijke
van 24 om 05 UTC tot 24 om 08 UTC
Gebroken wolken op 1200 ft
Wijzigt naar
van 24 om 09 UTC tot 24 om 11 UTC
Wind 10 kt uit het westzuidwesten
Kans 30%
van 24 om 16 UTC tot 24 om 22 UTC
Verspreide wolken op 1200 ft
Weinig wolken op 2000 ft, Cumulonimbus.
onweer

TAF: DIAP 232300Z 2400/2506 23004KT 8000 FEW012 TEMPO 2405/2408 BKN012 BECMG 2409/2411 25010KT PROB30 2416/2422 TS SCT012 FEW020CB

Waarnemingen en weersverwachtingen van meer dan 4000 vliegvelden (METAR en TAF).

De beschikbare stations zijn de gele en rode punten op de kaart.

Ga met uw muis naar het station om de naam te zien.

Klik dan om waarnemingen en weersverwachtingen te zien.

kaart wijzigen: klik op de groene knoppen met een zwart kruis om in te zoomen, op de groene knop met een streepje om uit te zoomen of op de groene pijlen voor aangrenzende kaarten.


METAR-TAF: